Time;durP1;ratioP1;P1;durP2;ratioP2;P2;SDS_P1;SDS_P2;PMS_P1;PMS_P2;Temp;Humidity;BMP_temperature;BMP_pressure;BME280_temperature;BME280_humidity;BME280_pressure;Samples;Min_cycle;Max_cycle;Signal;HPM_P1;HPM_P2
2023/01/16 00:01:58;;;;;;;1999.90;999.90;;;;;;;5.22;100.00;97028.94;4953619;29;20050;-76
2023/01/16 00:04:23;;;;;;;1999.90;999.90;;;;;;;5.07;100.00;97009.28;4954581;29;20031;-76
2023/01/16 00:06:49;;;;;;;1999.90;999.90;;;;;;;5.17;100.00;97015.44;4942953;29;20066;-78
2023/01/16 00:09:14;;;;;;;1999.90;999.90;;;;;;;5.11;100.00;97016.56;4955781;29;20389;-75
2023/01/16 00:11:40;;;;;;;1999.90;999.90;;;;;;;4.94;100.00;97009.94;4953098;29;20027;-75
2023/01/16 00:14:05;;;;;;;1999.90;999.90;;;;;;;4.92;100.00;97018.34;4953233;29;20374;-75
2023/01/16 00:16:30;;;;;;;1999.90;999.90;;;;;;;4.85;100.00;97010.53;4953163;29;20027;-76
2023/01/16 00:18:56;;;;;;;1999.90;999.90;;;;;;;4.81;100.00;96997.84;4953007;29;20063;-77
2023/01/16 00:21:26;;;;;;;1999.90;999.90;;;;;;;4.85;100.00;96998.91;4952708;29;20011;-77
2023/01/16 00:23:53;;;;;;;1999.90;999.90;;;;;;;4.84;100.00;97000.78;4952983;29;20027;-78
2023/01/16 00:26:19;;;;;;;1999.90;999.90;;;;;;;4.70;100.00;96988.16;4953543;29;20385;-80
2023/01/16 00:28:44;;;;;;;1999.90;999.90;;;;;;;4.61;100.00;96996.06;4953841;28;20035;-79
2023/01/16 00:31:10;;;;;;;1999.90;999.90;;;;;;;4.57;100.00;96999.63;4954516;28;20050;-76
2023/01/16 00:33:35;;;;;;;1999.90;999.90;;;;;;;4.49;100.00;96992.91;4953752;28;20035;-79
2023/01/16 00:36:01;;;;;;;1999.90;999.90;;;;;;;4.40;100.00;96991.88;4954579;29;20436;-77
2023/01/16 00:38:26;;;;;;;1999.90;999.90;;;;;;;4.36;100.00;96995.41;4954562;29;20034;-77
2023/01/16 00:40:52;;;;;;;1999.90;999.90;;;;;;;4.33;100.00;96994.06;4954360;29;20035;-77
2023/01/16 00:43:17;;;;;;;1999.90;999.90;;;;;;;4.21;100.00;96991.72;4937823;29;20067;-76
2023/01/16 00:45:43;;;;;;;1999.90;999.90;;;;;;;4.21;100.00;97001.72;4952806;29;20106;-77
2023/01/16 00:48:08;;;;;;;1999.90;999.90;;;;;;;4.13;100.00;96997.72;4952544;29;20031;-80
2023/01/16 00:50:34;;;;;;;1999.90;999.90;;;;;;;4.00;100.00;97001.00;4952701;28;20031;-78
2023/01/16 00:53:00;;;;;;;1999.90;999.90;;;;;;;3.93;100.00;96997.78;4951112;29;20039;-76
2023/01/16 00:55:25;;;;;;;1999.90;999.90;;;;;;;3.74;100.00;96999.47;4952709;28;20031;-76
2023/01/16 00:57:51;;;;;;;1999.90;999.90;;;;;;;3.82;100.00;97001.63;4951272;29;20027;-75
2023/01/16 01:00:20;;;;;;;1999.90;999.90;;;;;;;3.67;100.00;96998.94;4952820;29;20540;-77
2023/01/16 01:02:46;;;;;;;1999.90;999.90;;;;;;;3.51;100.00;96997.38;4953281;28;20086;-76
2023/01/16 01:05:11;;;;;;;1999.90;999.90;;;;;;;3.33;100.00;96997.94;4952890;28;20035;-77
2023/01/16 01:07:36;;;;;;;1999.90;999.90;;;;;;;3.23;100.00;96998.75;4952921;28;20086;-78
2023/01/16 01:10:02;;;;;;;1999.90;999.90;;;;;;;3.03;100.00;97005.00;4952683;29;20042;-76
2023/01/16 01:12:27;;;;;;;1999.90;999.90;;;;;;;2.87;100.00;97007.97;4952696;28;20055;-76
2023/01/16 01:14:53;;;;;;;1999.90;999.90;;;;;;;2.69;100.00;97009.31;4948638;29;20059;-78
2023/01/16 01:17:18;;;;;;;1999.90;999.90;;;;;;;2.46;100.00;97002.53;4950998;28;20038;-78
2023/01/16 01:19:43;;;;;;;1999.90;999.90;;;;;;;2.26;100.00;97017.84;4952761;28;20032;-78
2023/01/16 01:22:09;;;;;;;1999.90;999.90;;;;;;;2.16;100.00;97005.94;4952662;28;20366;-76
2023/01/16 01:24:34;;;;;;;1999.90;999.90;;;;;;;2.09;100.00;97010.81;4952163;28;20027;-76
2023/01/16 01:26:59;;;;;;;1999.90;999.90;;;;;;;2.06;100.00;97003.25;4951660;28;20485;-80
2023/01/16 01:29:25;;;;;;;1999.90;999.90;;;;;;;1.95;100.00;96996.19;4952471;28;20540;-77
2023/01/16 01:31:50;;;;;;;1999.90;999.90;;;;;;;1.86;100.00;96997.75;4952465;28;20062;-76
2023/01/16 01:34:15;;;;;;;1999.90;999.90;;;;;;;1.70;100.00;96992.56;4952941;28;20043;-76
2023/01/16 01:36:41;;;;;;;1999.90;999.90;;;;;;;1.62;100.00;96996.59;4952620;28;20066;-78
2023/01/16 01:39:06;;;;;;;1999.90;999.90;;;;;;;1.46;100.00;96982.22;4952620;28;20130;-80
2023/01/16 01:41:31;;;;;;;1999.90;999.90;;;;;;;1.28;100.00;96969.19;4952581;28;20473;-79
2023/01/16 01:43:57;;;;;;;1999.90;999.90;;;;;;;1.31;100.00;96979.44;4952564;28;20047;-78
2023/01/16 01:46:27;;;;;;;1999.90;999.90;;;;;;;1.32;100.00;96985.63;4956323;28;20034;-77
2023/01/16 01:49:00;;;;;;;1999.90;999.90;;;;;;;1.28;100.00;96981.84;4956217;28;19919;-76
2023/01/16 01:51:34;;;;;;;1999.90;999.90;;;;;;;1.15;100.00;96971.53;4955913;28;20027;-80
2023/01/16 01:54:04;;;;;;;1999.90;999.90;;;;;;;1.17;100.00;96983.66;4956258;28;20460;-75
2023/01/16 01:56:35;;;;;;;1999.90;999.90;;;;;;;1.28;100.00;96963.81;4956197;28;20073;-75
2023/01/16 01:59:07;;;;;;;1999.90;999.90;;;;;;;1.28;100.00;96973.75;4956257;28;20027;-75
2023/01/16 02:01:33;;;;;;;1999.90;999.90;;;;;;;1.21;100.00;96954.31;4956797;28;20047;-75
2023/01/16 02:04:08;;;;;;;1999.90;999.90;;;;;;;1.20;100.00;96968.84;4939349;28;20019;-77
2023/01/16 02:06:37;;;;;;;;;;;;;;;1.24;100.00;96975.34;4956386;28;20507;-75
2023/01/16 02:09:03;;;;;;;1999.90;999.90;;;;;;;1.24;100.00;96978.84;4956013;28;20398;-76
2023/01/16 02:11:38;;;;;;;1999.90;999.90;;;;;;;1.16;100.00;96954.31;4956095;28;20027;-74
2023/01/16 02:14:15;;;;;;;1999.90;999.90;;;;;;;1.07;100.00;96962.84;4958567;28;20039;-77
2023/01/16 02:19:51;;;;;;;1999.90;999.90;;;;;;;0.92;100.00;96949.28;4955869;28;20041;-74
2023/01/16 02:22:44;;;;;;;1999.90;999.90;;;;;;;0.95;100.00;96932.63;4955596;28;20023;-75
2023/01/16 02:25:31;;;;;;;1999.90;999.90;;;;;;;0.94;100.00;96920.22;4955253;28;20370;-76
2023/01/16 02:28:21;;;;;;;1999.90;999.90;;;;;;;0.92;100.00;96910.81;4957360;28;20043;-76
2023/01/16 02:31:07;;;;;;;1999.90;999.90;;;;;;;0.93;100.00;96907.06;4957447;28;20085;-77
2023/01/16 02:33:59;;;;;;;1999.90;999.90;;;;;;;1.01;100.00;96915.44;4939074;29;20126;-76
2023/01/16 02:36:46;;;;;;;1999.90;999.90;;;;;;;1.03;100.00;96912.50;4955380;28;20039;-78
2023/01/16 02:39:20;;;;;;;1999.90;999.90;;;;;;;1.00;100.00;96902.25;4938265;28;20023;-75
2023/01/16 02:42:16;;;;;;;1999.90;999.90;;;;;;;1.07;100.00;96911.69;4955174;28;20031;-77
2023/01/16 02:45:13;;;;;;;1999.90;999.90;;;;;;;1.17;100.00;96916.34;4937923;28;20051;-76
2023/01/16 02:47:55;;;;;;;1999.90;999.90;;;;;;;1.09;100.00;96922.22;4955067;28;20040;-76
2023/01/16 02:50:27;;;;;;;1999.90;999.90;;;;;;;1.07;100.00;96927.03;4938211;28;20036;-76
2023/01/16 02:52:59;;;;;;;1999.90;999.90;;;;;;;0.99;100.00;96909.50;4954989;28;20082;-76
2023/01/16 02:55:38;;;;;;;1999.90;999.90;;;;;;;0.98;100.00;96894.44;4955224;28;20046;-79
2023/01/16 02:58:09;;;;;;;1999.90;999.90;;;;;;;0.96;100.00;96875.03;4954533;28;20042;-75
2023/01/16 03:00:35;;;;;;;1999.90;999.90;;;;;;;1.00;100.00;96881.50;4954951;28;20086;-76
2023/01/16 03:03:00;;;;;;;1999.90;999.90;;;;;;;0.99;100.00;96900.63;4955389;28;20095;-74
2023/01/16 03:05:31;;;;;;;1999.90;999.90;;;;;;;0.92;100.00;96911.63;4954724;28;20114;-76
2023/01/16 03:08:11;;;;;;;1999.90;999.90;;;;;;;0.96;100.00;96910.03;4938104;28;20063;-75
2023/01/16 03:10:55;;;;;;;1999.90;999.90;;;;;;;1.02;100.00;96900.09;4954855;28;20110;-76
2023/01/16 03:13:34;;;;;;;1999.90;999.90;;;;;;;0.97;100.00;96897.41;4954662;28;20122;-75
2023/01/16 03:16:25;;;;;;;1999.90;999.90;;;;;;;0.88;100.00;96890.84;4954604;28;20023;-74
2023/01/16 03:19:13;;;;;;;1999.90;999.90;;;;;;;0.76;100.00;96893.75;4954690;28;20031;-74
2023/01/16 03:21:51;;;;;;;1999.90;999.90;;;;;;;0.81;100.00;96888.41;4937515;28;20027;-74
2023/01/16 03:24:16;;;;;;;1999.90;999.90;;;;;;;0.78;100.00;96897.00;4954543;28;20488;-76
2023/01/16 03:26:47;;;;;;;1999.90;999.90;;;;;;;0.81;100.00;96883.03;4954496;28;20069;-76
2023/01/16 03:29:31;;;;;;;1999.90;999.90;;;;;;;0.82;100.00;96883.81;4954320;28;20019;-76
2023/01/16 03:32:13;;;;;;;1999.90;999.90;;;;;;;0.79;100.00;96884.34;4954370;28;20050;-75
2023/01/16 03:34:53;;;;;;;1999.90;999.90;;;;;;;0.82;100.00;96897.28;4954437;28;20035;-76
2023/01/16 03:37:32;;;;;;;1999.90;999.90;;;;;;;0.81;100.00;96899.19;4936773;28;20027;-75
2023/01/16 03:40:01;;;;;;;1999.90;999.90;;;;;;;0.86;100.00;96893.00;4954292;28;20039;-75
2023/01/16 03:42:38;;;;;;;1999.90;999.90;;;;;;;0.76;100.00;96871.41;4954242;28;20751;-77
2023/01/16 03:45:33;;;;;;;1999.90;999.90;;;;;;;0.71;100.00;96872.19;4936581;28;20494;-75
2023/01/16 03:48:16;;;;;;;1999.90;999.90;;;;;;;0.81;100.00;96872.28;4951459;28;20408;-74
2023/01/16 03:50:47;;;;;;;1999.90;999.90;;;;;;;0.66;100.00;96847.16;4953997;28;20019;-75
2023/01/16 03:53:15;;;;;;;1999.90;999.90;;;;;;;0.78;100.00;96863.91;4954390;28;20527;-74
2023/01/16 03:55:44;;;;;;;1999.90;999.90;;;;;;;0.70;100.00;96869.75;4955545;28;20032;-74
2023/01/16 03:58:19;;;;;;;1999.90;999.90;;;;;;;0.71;100.00;96856.06;4955601;28;20381;-74
2023/01/16 04:00:55;;;;;;;1999.90;999.90;;;;;;;0.73;100.00;96859.28;4953807;28;20026;-77
2023/01/16 04:03:30;;;;;;;1999.90;999.90;;;;;;;0.69;100.00;96854.69;4953787;28;20030;-75
2023/01/16 04:06:06;;;;;;;1999.90;999.90;;;;;;;0.78;100.00;96848.56;4953677;28;20024;-75
2023/01/16 04:08:37;;;;;;;1999.90;999.90;;;;;;;0.82;100.00;96846.97;4953443;28;20031;-77
2023/01/16 04:11:04;;;;;;;1999.90;999.90;;;;;;;0.80;100.00;96854.50;4953547;28;20449;-75
2023/01/16 04:13:34;;;;;;;1999.90;999.90;;;;;;;0.95;100.00;96851.88;4955290;28;20055;-74
2023/01/16 04:16:04;;;;;;;1999.90;999.90;;;;;;;0.90;100.00;96854.56;4960749;28;20106;-74
2023/01/16 04:18:33;;;;;;;1999.90;999.90;;;;;;;0.88;100.00;96856.69;4954217;28;20078;-75
2023/01/16 04:20:59;;;;;;;1999.90;999.90;;;;;;;0.91;100.00;96866.94;4954337;28;20038;-75
2023/01/16 04:23:24;;;;;;;1999.90;999.90;;;;;;;0.80;100.00;96857.19;4958611;28;20023;-76
2023/01/16 04:25:50;;;;;;;1999.90;999.90;;;;;;;0.83;100.00;96858.53;4957309;28;20027;-75
2023/01/16 04:28:16;;;;;;;1999.90;999.90;;;;;;;0.72;100.00;96849.59;4953200;28;20042;-76
2023/01/16 04:30:41;;;;;;;1999.90;999.90;;;;;;;0.82;100.00;96841.56;4953441;28;20039;-75
2023/01/16 04:33:07;;;;;;;1999.90;999.90;;;;;;;0.88;100.00;96854.00;4953241;28;20051;-75
2023/01/16 04:35:33;;;;;;;1999.90;999.90;;;;;;;0.91;100.00;96861.53;4953506;28;20114;-77
2023/01/16 04:37:58;;;;;;;1999.90;999.90;;;;;;;0.93;100.00;96866.69;4953279;28;20024;-76
2023/01/16 04:40:25;;;;;;;1999.90;999.90;;;;;;;0.78;100.00;96855.84;4953214;28;20108;-76
2023/01/16 04:42:50;;;;;;;1999.90;999.90;;;;;;;0.84;100.00;96855.59;4953887;28;20036;-75
2023/01/16 04:45:16;;;;;;;1999.90;999.90;;;;;;;0.95;100.00;96862.66;4955189;28;20023;-77
2023/01/16 04:47:48;;;;;;;1999.90;999.90;;;;;;;0.94;100.00;96854.84;4954369;28;20086;-75
2023/01/16 04:50:14;;;;;;;1999.90;999.90;;;;;;;0.96;100.00;96856.19;4953124;28;20118;-76
2023/01/16 04:52:41;;;;;;;1999.90;999.90;;;;;;;1.01;100.00;96834.69;4952842;28;20118;-77
2023/01/16 04:55:07;;;;;;;1999.90;999.90;;;;;;;1.05;100.00;96835.78;4952944;28;20448;-76
2023/01/16 04:57:32;;;;;;;1999.90;999.90;;;;;;;1.00;100.00;96822.28;4952889;28;20029;-75
2023/01/16 04:59:58;;;;;;;1999.90;999.90;;;;;;;1.05;100.00;96841.16;4952979;28;20035;-76
2023/01/16 05:02:23;;;;;;;1999.90;999.90;;;;;;;1.12;100.00;96837.44;4952505;28;20031;-77
2023/01/16 05:04:48;;;;;;;1999.90;999.90;;;;;;;1.13;100.00;96849.81;4953083;28;20085;-74
2023/01/16 05:07:14;;;;;;;1999.90;999.90;;;;;;;1.20;100.00;96847.69;4952400;28;20090;-76
2023/01/16 05:09:39;;;;;;;1999.90;999.90;;;;;;;1.11;100.00;96843.88;4951610;28;20043;-74
2023/01/16 05:12:05;;;;;;;1999.90;999.90;;;;;;;1.09;100.00;96830.69;4952155;28;20019;-77
2023/01/16 05:14:30;;;;;;;1999.90;999.90;;;;;;;1.11;100.00;96822.34;4935495;28;20547;-75
2023/01/16 05:16:55;;;;;;;1999.90;999.90;;;;;;;1.16;100.00;96817.00;4952688;28;20123;-75
2023/01/16 05:19:20;;;;;;;1999.90;999.90;;;;;;;1.11;100.00;96817.75;4952309;28;20035;-77
2023/01/16 05:21:46;;;;;;;1999.90;999.90;;;;;;;1.01;100.00;96818.53;4952877;28;20074;-75
2023/01/16 05:24:11;;;;;;;1999.90;999.90;;;;;;;0.92;100.00;96809.34;4952539;28;20020;-76
2023/01/16 05:26:37;;;;;;;1999.90;999.90;;;;;;;0.98;100.00;96800.22;4952471;28;20389;-76
2023/01/16 05:29:02;;;;;;;1999.90;999.90;;;;;;;1.04;100.00;96806.41;4952686;28;20039;-76
2023/01/16 05:31:27;;;;;;;1999.90;999.90;;;;;;;0.99;100.00;96804.53;4952258;28;20015;-75
2023/01/16 05:33:53;;;;;;;1999.90;999.90;;;;;;;1.11;100.00;96803.50;4952821;28;20031;-78
2023/01/16 05:36:18;;;;;;;1999.90;999.90;;;;;;;1.17;100.00;96794.34;4952468;28;20039;-77
2023/01/16 05:38:43;;;;;;;1999.90;999.90;;;;;;;1.07;100.00;96790.56;4952359;28;20031;-76
2023/01/16 05:41:09;;;;;;;1999.90;999.90;;;;;;;1.13;100.00;96785.22;4952829;28;20032;-76
2023/01/16 05:43:34;;;;;;;1999.90;999.90;;;;;;;1.12;100.00;96791.66;4952345;28;20008;-76
2023/01/16 05:45:59;;;;;;;1999.90;999.90;;;;;;;1.02;100.00;96776.28;4952560;28;20425;-77
2023/01/16 05:48:25;;;;;;;1999.90;999.90;;;;;;;1.03;100.00;96773.31;4955201;28;20408;-75
2023/01/16 05:50:51;;;;;;;1999.90;999.90;;;;;;;1.01;100.00;96756.63;4957162;28;20043;-74
2023/01/16 05:53:16;;;;;;;1999.90;999.90;;;;;;;0.97;100.00;96758.22;4963256;28;20174;-76
2023/01/16 05:55:44;;;;;;;1999.90;999.90;;;;;;;0.74;100.00;96761.38;4971601;28;20489;-76
2023/01/16 05:58:10;;;;;;;1999.90;999.90;;;;;;;0.74;100.00;96761.38;4958736;28;20035;-76
2023/01/16 06:00:37;;;;;;;1999.90;999.90;;;;;;;0.75;100.00;96749.50;4952215;29;20389;-75
2023/01/16 06:03:03;;;;;;;1999.90;999.90;;;;;;;0.70;100.00;96746.81;4957890;28;20380;-76
2023/01/16 06:05:28;;;;;;;1999.90;999.90;;;;;;;0.62;100.00;96746.50;4966117;28;20172;-74
2023/01/16 06:07:55;;;;;;;1999.90;999.90;;;;;;;0.72;100.00;96741.97;4953078;28;20063;-75
2023/01/16 06:10:20;;;;;;;1999.90;999.90;;;;;;;0.79;100.00;96734.47;4970817;28;20388;-76
2023/01/16 06:12:45;;;;;;;1999.90;999.90;;;;;;;0.83;100.00;96724.81;4958469;28;20043;-75
2023/01/16 06:15:11;;;;;;;1999.90;999.90;;;;;;;0.86;100.00;96718.91;4961013;28;20027;-74
2023/01/16 06:17:36;;;;;;;1999.90;999.90;;;;;;;0.99;100.00;96702.25;4960971;28;20105;-76
2023/01/16 06:20:01;;;;;;;1999.90;999.90;;;;;;;0.92;100.00;96704.38;4961296;28;20039;-76
2023/01/16 06:22:27;;;;;;;1999.90;999.90;;;;;;;0.99;100.00;96696.88;4960349;28;20034;-75
2023/01/16 06:24:52;;;;;;;1999.90;999.90;;;;;;;1.01;100.00;96677.75;4962605;28;20031;-76
2023/01/16 06:27:18;;;;;;;1999.90;999.90;;;;;;;1.00;100.00;96678.84;4953288;28;20032;-76
2023/01/16 06:29:43;;;;;;;1999.90;999.90;;;;;;;1.00;100.00;96689.59;4955377;28;20038;-75
2023/01/16 06:32:08;;;;;;;1999.90;999.90;;;;;;;1.00;100.00;96676.94;4970799;28;20116;-76
2023/01/16 06:34:34;;;;;;;1999.90;999.90;;;;;;;1.02;100.00;96682.88;4979978;28;20019;-76
2023/01/16 06:36:59;;;;;;;1999.90;999.90;;;;;;;0.92;100.00;96680.16;4974781;28;20035;-77
2023/01/16 06:39:24;;;;;;;1999.90;999.90;;;;;;;0.82;100.00;96685.50;4973330;28;20050;-74
2023/01/16 06:41:50;;;;;;;1999.90;999.90;;;;;;;0.85;100.00;96684.97;4952948;28;20038;-73
2023/01/16 06:44:15;;;;;;;1999.90;999.90;;;;;;;0.85;100.00;96663.44;4956323;28;20066;-76
2023/01/16 06:46:41;;;;;;;1999.90;999.90;;;;;;;0.96;100.00;96646.25;4954901;29;20098;-76
2023/01/16 06:49:06;;;;;;;1999.90;999.90;;;;;;;1.06;100.00;96648.16;4954793;29;20020;-76
2023/01/16 06:51:31;;;;;;;1999.90;999.90;;;;;;;1.15;100.00;96651.13;4954513;29;20090;-74
2023/01/16 06:53:57;;;;;;;1999.90;999.90;;;;;;;1.03;100.00;96660.25;4954461;29;20028;-75
2023/01/16 06:56:23;;;;;;;1999.90;999.90;;;;;;;1.00;100.00;96660.78;4954620;29;20030;-79
2023/01/16 06:58:49;;;;;;;1999.90;999.90;;;;;;;1.13;100.00;96655.97;4954701;29;20438;-79
2023/01/16 07:01:14;;;;;;;1999.90;999.90;;;;;;;1.12;100.00;96651.66;4954618;29;20050;-74
2023/01/16 07:03:39;;;;;;;1999.90;999.90;;;;;;;1.20;100.00;96637.66;4954502;29;20023;-75
2023/01/16 07:06:05;;;;;;;1999.90;999.90;;;;;;;1.23;100.00;96637.13;4937603;29;20028;-76
2023/01/16 07:08:30;;;;;;;1999.90;999.90;;;;;;;1.28;100.00;96643.34;4954365;29;20083;-76
2023/01/16 07:11:00;;;;;;;1999.90;999.90;;;;;;;1.28;100.00;96646.03;4937108;29;20043;-75
2023/01/16 07:13:28;;;;;;;1999.90;999.90;;;;;;;1.32;100.00;96630.13;4954234;29;20031;-75
2023/01/16 07:22:34;;;;;;;1999.90;999.90;;;;;;;1.37;100.00;96632.81;4953839;29;20147;-76
2023/01/16 07:24:24;;;;;;;1999.90;999.90;;;;;;;1.10;100.00;96640.38;4954436;29;20049;-76
2023/01/16 07:26:57;;;;;;;1999.90;999.90;;;;;;;1.08;100.00;96635.22;4954249;29;20031;-76
2023/01/16 07:29:23;;;;;;;1999.90;999.90;;;;;;;1.02;100.00;96620.97;4954692;29;20039;-75
2023/01/16 07:31:48;;;;;;;1999.90;999.90;;;;;;;1.19;100.00;96633.38;4954884;29;20028;-77
2023/01/16 07:34:13;;;;;;;1999.90;999.90;;;;;;;1.22;100.00;96633.66;4954386;29;20401;-76
2023/01/16 07:36:39;;;;;;;1999.90;999.90;;;;;;;1.35;100.00;96624.19;4954337;29;20175;-76
2023/01/16 07:39:04;;;;;;;1999.90;999.90;;;;;;;1.31;100.00;96623.13;4954212;29;20030;-76
2023/01/16 07:41:29;;;;;;;1999.90;999.90;;;;;;;1.33;100.00;96616.41;4954132;29;20481;-76
2023/01/16 07:43:54;;;;;;;1999.90;999.90;;;;;;;1.42;100.00;96619.34;4953674;28;20119;-75
2023/01/16 07:46:20;;;;;;;1999.90;999.90;;;;;;;1.45;100.00;96608.84;4954795;29;20110;-76
2023/01/16 07:48:45;;;;;;;1999.90;999.90;;;;;;;1.46;100.00;96609.66;4954331;29;20027;-76
2023/01/16 07:51:10;;;;;;;1999.90;999.90;;;;;;;1.49;100.00;96615.31;4955989;29;20034;-76
2023/01/16 07:53:36;;;;;;;1999.90;999.90;;;;;;;1.43;100.00;96605.63;4957803;29;20484;-77
2023/01/16 07:56:02;;;;;;;1999.90;999.90;;;;;;;1.51;100.00;96606.94;4953822;29;20547;-77
2023/01/16 07:58:29;;;;;;;1999.90;999.90;;;;;;;1.45;100.00;96597.25;4953932;29;20039;-75
2023/01/16 08:00:56;;;;;;;1999.90;999.90;;;;;;;1.44;100.00;96595.66;4953752;29;20023;-77
2023/01/16 08:03:22;;;;;;;1999.90;999.90;;;;;;;1.51;100.00;96598.88;4953864;29;20027;-75
2023/01/16 08:05:50;;;;;;;1999.90;999.90;;;;;;;1.64;100.00;96603.69;4953705;29;20034;-76
2023/01/16 08:08:16;;;;;;;1999.90;999.90;;;;;;;1.74;100.00;96595.59;4936200;29;20050;-75
2023/01/16 08:10:41;;;;;;;1999.90;999.90;;;;;;;1.64;100.00;96590.22;4953683;29;20046;-76
2023/01/16 08:13:06;;;;;;;1999.90;999.90;;;;;;;1.62;100.00;96597.78;4953327;29;20062;-75
2023/01/16 08:15:32;;;;;;;1999.90;999.90;;;;;;;1.63;100.00;96599.38;4953601;29;20108;-76
2023/01/16 08:17:57;;;;;;;1999.90;999.90;;;;;;;1.68;100.00;96594.00;4953541;29;20488;-75
2023/01/16 08:20:24;;;;;;;1999.90;999.90;;;;;;;1.57;100.00;96600.47;4953311;29;20035;-77
2023/01/16 08:22:51;;;;;;;1999.90;999.90;;;;;;;1.67;100.00;96578.91;4953523;29;20098;-74
2023/01/16 08:25:20;;;;;;;1999.90;999.90;;;;;;;1.63;100.00;96585.13;4953360;29;20028;-74
2023/01/16 08:27:46;;;;;;;1999.90;999.90;;;;;;;1.75;100.00;96574.88;4953443;29;20070;-75
2023/01/16 08:30:14;;;;;;;1999.90;999.90;;;;;;;1.79;100.00;96570.53;4953476;29;20073;-76
2023/01/16 08:32:39;;;;;;;1999.90;999.90;;;;;;;1.76;100.00;96571.88;4953256;29;20035;-75
2023/01/16 08:35:05;;;;;;;1999.90;999.90;;;;;;;1.62;100.00;96570.84;4953437;29;20122;-78
2023/01/16 08:37:31;;;;;;;1999.90;999.90;;;;;;;1.66;100.00;96571.91;4953454;29;20024;-75
2023/01/16 08:39:57;;;;;;;1999.90;999.90;;;;;;;1.61;100.00;96556.56;4937084;29;20043;-77
2023/01/16 08:53:21;;;;;;;1999.90;999.90;;;;;;;1.67;100.00;96541.19;4952808;28;20077;-76
2023/01/16 08:55:46;;;;;;;1999.90;999.90;;;;;;;1.93;100.00;96539.22;4952258;29;20083;-76
2023/01/16 08:58:11;;;;;;;1999.90;999.90;;;;;;;2.00;100.00;96537.84;4953072;29;20556;-75
2023/01/16 09:00:37;;;;;;;1999.90;999.90;;;;;;;1.99;100.00;96519.25;4953077;29;20039;-75
2023/01/16 09:03:02;;;;;;;1999.90;999.90;;;;;;;1.92;100.00;96516.84;4952684;29;20034;-75
2023/01/16 09:05:28;;;;;;;1999.90;999.90;;;;;;;1.85;100.00;96504.75;4954236;29;20108;-75
2023/01/16 09:07:54;;;;;;;1999.90;999.90;;;;;;;1.91;100.00;96509.06;4954850;29;20169;-75
2023/01/16 09:10:19;;;;;;;1999.90;999.90;;;;;;;1.84;100.00;96486.97;4953579;29;20473;-76
2023/01/16 09:15:28;;;;;;;1999.90;999.90;;;;;;;2.16;100.00;96492.75;4953352;29;20464;-76
2023/01/16 09:17:54;;;;;;;1999.90;999.90;;;;;;;2.11;100.00;96504.34;4953186;29;20024;-75
2023/01/16 09:20:19;;;;;;;1999.90;999.90;;;;;;;2.07;100.00;96497.09;4952810;29;20430;-75
2023/01/16 09:22:45;;;;;;;1999.90;999.90;;;;;;;2.03;100.00;96491.47;4952845;29;20031;-75
2023/01/16 09:25:10;;;;;;;1999.90;999.90;;;;;;;1.97;100.00;96473.69;4952780;29;20024;-76
2023/01/16 09:27:36;;;;;;;1999.90;999.90;;;;;;;2.10;100.00;96489.25;4952432;29;20031;-75
2023/01/16 09:30:01;;;;;;;1999.90;999.90;;;;;;;2.11;100.00;96493.56;4952660;29;20027;-75
2023/01/16 09:32:27;;;;;;;1999.90;999.90;;;;;;;1.98;100.00;96496.06;4952601;29;20393;-74
2023/01/16 09:34:52;;;;;;;1999.90;999.90;;;;;;;1.99;100.00;96490.41;4935887;29;20031;-74
2023/01/16 09:37:18;;;;;;;1999.90;999.90;;;;;;;1.84;100.00;96490.47;4952821;29;20043;-75
2023/01/16 09:39:43;;;;;;;1999.90;999.90;;;;;;;2.02;100.00;96480.94;4955682;29;20027;-76
2023/01/16 09:45:25;;;;;;;1999.90;999.90;;;;;;;1.93;100.00;96463.75;4952567;29;20054;-75
2023/01/16 09:47:58;;;;;;;1999.90;999.90;;;;;;;2.04;100.00;96459.91;4952494;29;20031;-74
2023/01/16 09:50:40;;;;;;;1999.90;999.90;;;;;;;2.25;100.00;96460.59;4952391;29;20027;-76
2023/01/16 09:58:57;;;;;;;1999.90;999.90;;;;;;;2.59;100.00;96434.47;4953626;29;20415;-75
2023/01/16 10:01:43;;;;;;;1999.90;999.90;;;;;;;2.72;100.00;96423.03;4953191;29;20507;-78
2023/01/16 10:04:19;;;;;;;1999.90;999.90;;;;;;;2.66;100.00;96424.94;4955671;29;20038;-74
2023/01/16 10:07:15;;;;;;;1999.90;999.90;;;;;;;2.65;100.00;96423.34;4959159;28;20137;-75
2023/01/16 10:10:12;;;;;;;1999.90;999.90;;;;;;;2.66;100.00;96418.75;4959286;29;20082;-78
2023/01/16 10:12:39;;;;;;;1999.90;999.90;;;;;;;2.65;100.00;96417.13;4956249;29;20036;-76
2023/01/16 10:15:20;;;;;;;1999.90;999.90;;;;;;;2.54;100.00;96416.41;4939397;29;20099;-76
2023/01/16 10:18:07;;;;;;;1999.90;999.90;;;;;;;2.59;100.00;96413.69;4940743;29;20473;-76
2023/01/16 10:21:03;;;;;;;1999.90;999.90;;;;;;;2.76;100.00;96413.25;4941123;29;20093;-76
2023/01/16 10:23:43;;;;;;;1999.90;999.90;;;;;;;3.29;100.00;96410.59;4936470;29;20086;-76
2023/01/16 10:26:18;;;;;;;1999.90;999.90;;;;;;;2.86;100.00;96406.97;4936260;29;20050;-75
2023/01/16 10:29:07;;;;;;;;;;;;;;;2.84;100.00;96403.75;4936986;29;20042;-76
2023/01/16 10:31:49;;;;;;;1999.90;999.90;;;;;;;2.77;100.00;96387.88;4925659;29;20017;-75
2023/01/16 10:34:20;;;;;;;1999.90;999.90;;;;;;;2.78;100.00;96378.69;4934090;29;20032;-75
2023/01/16 10:36:51;;;;;;;1999.90;999.90;;;;;;;2.65;100.00;96376.66;4936469;29;20066;-75
2023/01/16 10:39:19;;;;;;;1999.90;999.90;;;;;;;2.67;100.00;96355.56;4936181;29;20079;-76
2023/01/16 10:50:24;;;;;;;1999.90;999.90;;;;;;;3.26;100.00;96338.22;4942200;29;20047;-80
2023/01/16 10:52:49;;;;;;;1999.90;999.90;;;;;;;3.44;100.00;96337.44;4940189;29;20055;-76
2023/01/16 10:55:16;;;;;;;1999.90;999.90;;;;;;;3.47;100.00;96331.47;4935965;29;20031;-76
2023/01/16 10:57:59;;;;;;;1999.90;999.90;;;;;;;3.43;100.00;96336.66;4935888;29;20477;-77
2023/01/16 11:00:39;;;;;;;1999.90;999.90;;;;;;;3.51;100.00;96321.69;4935791;29;20047;-78
2023/01/16 11:03:23;;;;;;;1999.90;999.90;;;;;;;3.55;100.00;96309.19;4935574;29;20038;-76
2023/01/16 11:05:48;;;;;;;1999.90;999.90;;;;;;;3.32;100.00;96301.94;4935848;29;20413;-75
2023/01/16 11:08:17;;;;;;;1999.90;999.90;;;;;;;3.27;100.00;96302.81;4935430;29;20031;-76
2023/01/16 11:10:51;;;;;;;1999.90;999.90;;;;;;;3.43;100.00;96301.50;4935719;29;20087;-77
2023/01/16 11:18:56;;;;;;;1999.90;999.90;;;;;;;3.54;100.00;96280.56;4935314;29;20050;-76
2023/01/16 11:21:30;;;;;;;1999.90;999.90;;;;;;;3.38;100.00;96273.75;4935474;29;20123;-76
2023/01/16 11:23:59;;;;;;;1999.90;999.90;;;;;;;3.42;100.00;96270.16;4935752;29;20118;-76
2023/01/16 11:26:26;;;;;;;1999.90;999.90;;;;;;;3.28;100.00;96268.50;4937078;29;20043;-77
2023/01/16 11:28:53;;;;;;;1999.90;999.90;;;;;;;3.40;100.00;96261.56;4938316;29;20397;-75
2023/01/16 11:31:25;;;;;;;1999.90;999.90;;;;;;;3.46;100.00;96243.38;4935353;29;20057;-75
2023/01/16 11:33:57;;;;;;;1999.90;999.90;;;;;;;3.58;100.00;96266.16;4935200;29;20023;-75
2023/01/16 11:36:24;;;;;;;1999.90;999.90;;;;;;;3.38;100.00;96255.66;4935250;29;20031;-75
2023/01/16 11:38:51;;;;;;;1999.90;999.90;;;;;;;3.33;100.00;96249.50;4935126;29;20034;-76
2023/01/16 11:41:22;;;;;;;1999.90;999.90;;;;;;;3.13;100.00;96245.19;4934906;29;20035;-76
2023/01/16 11:46:59;;;;;;;1999.90;999.90;;;;;;;2.99;100.00;96218.09;4935101;29;20042;-75
2023/01/16 11:49:28;;;;;;;1999.90;999.90;;;;;;;3.06;100.00;96220.44;4935251;29;20102;-75
2023/01/16 11:51:54;;;;;;;1999.90;999.90;;;;;;;2.95;100.00;96206.25;4934769;29;20138;-76
2023/01/16 11:54:26;;;;;;;1999.90;999.90;;;;;;;3.00;100.00;96203.50;4935013;29;20505;-75